Durian, Arkansas
Current Conditions -  °F | °C
As of 8:53 PM on Friday 28 Nov 2014 (Local Time) from KHOT Reporting Station
Broken Clouds Broken Clouds  
Wind Chill: 55°   Ceiling: 4100
Heat Index: 55°   Visibility: 10mi
Dew Point: 38°   Wind: 9mph
Humidity: 53%   Direction: 200°SSW
Pressure: 30.07"   Gusts: NA
Location:  34.3189°N, 92.8629°W
Report Text: KHOT 290253Z AUTO 20008KT 10SM BKN041 13/03 A3007 RMK AO2 SLP181 T01280033 58009
Loading
Personal Weather Stations






























Interactive Weather Map New forecast layout! Learn more

10-Day Weather Forecast

Advertisements
Track Severe Weather on mobile